Time;durP1;ratioP1;P1;durP2;ratioP2;P2;SDS_P1;SDS_P2;PMS_P1;PMS_P2;Temp;Humidity;BMP_temperature;BMP_pressure;BME280_temperature;BME280_humidity;BME280_pressure;Samples;Min_cycle;Max_cycle;Signal;HPM_P1;HPM_P2
2022/06/22 00:02:07;;;;;;;14.68;9.38;;;;;;;;;;5071039;28;20028;-59
2022/06/22 00:04:55;;;;;;;18.55;10.38;;;;;;;;;;5070683;28;20028;-58
2022/06/22 00:07:24;;;;;;;13.38;9.77;;;;;;;;;;5064868;28;20060;-59
2022/06/22 00:10:22;;;;;;;14.18;9.65;;;;;;;;;;5072309;28;20059;-58
2022/06/22 00:12:50;;;;;;;18.48;10.05;;;;;;;;;;5066786;28;20090;-58
2022/06/22 00:15:25;;;;;;;15.57;9.73;;;;;;;;;;5061867;28;20033;-59
2022/06/22 00:17:51;;;;;;;12.63;9.70;;;;;;;;;;5075272;28;20031;-58
2022/06/22 00:20:34;;;;;;;15.55;10.57;;;;;;;;;;5075912;28;20032;-58
2022/06/22 00:23:24;;;;;;;12.55;9.73;;;;;;;;;;5069493;28;20029;-59
2022/06/22 00:25:50;;;;;;;21.40;10.23;;;;;;;;;;5062841;28;20036;-59
2022/06/22 00:28:29;;;;;;;21.15;10.60;;;;;;;;;;5068444;28;20035;-58
2022/06/22 00:31:03;;;;;;;;;;;;;;;;;;5060135;28;20035;-58
2022/06/22 00:33:35;;;;;;;18.05;10.13;;;;;;;;;;5067263;28;20302;-58
2022/06/22 00:36:00;;;;;;;15.95;9.80;;;;;;;;;;5062239;28;20487;-58
2022/06/22 00:38:30;;;;;;;18.85;10.30;;;;;;;;;;5069902;28;20051;-58
2022/06/22 00:41:00;;;;;;;14.65;10.27;;;;;;;;;;5068987;28;20036;-58
2022/06/22 00:43:30;;;;;;;19.35;10.95;;;;;;;;;;5073631;28;20024;-57
2022/06/22 00:45:59;;;;;;;16.50;10.32;;;;;;;;;;5068130;28;20064;-58
2022/06/22 00:48:38;;;;;;;19.77;11.10;;;;;;;;;;5065620;28;20020;-57
2022/06/22 00:51:12;;;;;;;18.25;11.02;;;;;;;;;;5068760;28;20123;-57
2022/06/22 00:53:51;;;;;;;13.00;10.20;;;;;;;;;;5072453;28;20032;-57
2022/06/22 00:56:16;;;;;;;14.20;10.00;;;;;;;;;;5063913;28;20059;-59
2022/06/22 00:59:04;;;;;;;15.75;9.77;;;;;;;;;;5069763;28;20045;-59
2022/06/22 01:01:38;;;;;;;21.48;11.32;;;;;;;;;;5065624;28;20025;-58
2022/06/22 01:04:31;;;;;;;21.40;10.55;;;;;;;;;;5072212;28;20055;-60
2022/06/22 01:07:15;;;;;;;18.45;10.43;;;;;;;;;;5066350;28;20028;-58
2022/06/22 01:09:50;;;;;;;19.55;11.27;;;;;;;;;;5066933;28;20027;-58
2022/06/22 01:12:23;;;;;;;16.65;11.70;;;;;;;;;;5064919;28;20116;-59
2022/06/22 01:15:33;;;;;;;17.33;11.10;;;;;;;;;;5070294;28;20031;-58
2022/06/22 01:18:10;;;;;;;15.30;11.18;;;;;;;;;;5066435;28;20076;-58
2022/06/22 01:20:45;;;;;;;15.60;10.57;;;;;;;;;;5060440;28;20025;-58
2022/06/22 01:23:11;;;;;;;15.32;10.50;;;;;;;;;;5065241;28;20470;-58
2022/06/22 01:25:36;;;;;;;14.85;11.25;;;;;;;;;;5062632;28;20099;-59
2022/06/22 01:28:03;;;;;;;15.73;10.13;;;;;;;;;;5062356;28;20040;-60
2022/06/22 01:30:37;;;;;;;16.35;10.45;;;;;;;;;;5067351;28;20058;-59
2022/06/22 01:33:18;;;;;;;20.35;11.48;;;;;;;;;;5067527;28;20028;-59
2022/06/22 01:35:44;;;;;;;18.40;10.63;;;;;;;;;;5066459;28;20028;-59
2022/06/22 01:38:24;;;;;;;18.63;10.57;;;;;;;;;;5069903;28;20484;-58
2022/06/22 01:41:03;;;;;;;18.67;11.32;;;;;;;;;;5068644;28;20119;-58
2022/06/22 01:43:44;;;;;;;19.38;10.95;;;;;;;;;;5069670;28;20017;-58
2022/06/22 01:46:40;;;;;;;17.52;11.10;;;;;;;;;;5066639;28;20025;-58
2022/06/22 01:49:48;;;;;;;18.65;10.60;;;;;;;;;;5066565;28;20028;-58
2022/06/22 01:52:38;;;;;;;15.70;10.73;;;;;;;;;;5036364;28;20420;-60
2022/06/22 01:55:17;;;;;;;19.33;11.60;;;;;;;;;;5064352;28;20131;-58
2022/06/22 01:57:50;;;;;;;16.55;10.93;;;;;;;;;;5072000;28;20170;-59
2022/06/22 02:00:19;;;;;;;18.88;12.30;;;;;;;;;;5066044;28;20039;-59
2022/06/22 02:02:49;;;;;;;19.77;12.52;;;;;;;;;;5068220;28;20067;-58
2022/06/22 02:05:29;;;;;;;20.75;11.20;;;;;;;;;;5059497;28;20050;-58
2022/06/22 02:08:08;;;;;;;19.13;12.25;;;;;;;;;;5072515;28;20036;-59
2022/06/22 02:10:47;;;;;;;18.13;12.53;;;;;;;;;;5068738;28;20107;-58
2022/06/22 02:13:34;;;;;;;16.48;11.63;;;;;;;;;;5066385;28;20357;-58
2022/06/22 02:16:11;;;;;;;17.20;11.27;;;;;;;;;;5061555;28;20027;-58
2022/06/22 02:18:43;;;;;;;19.25;11.98;;;;;;;;;;5064226;28;20085;-59
2022/06/22 02:21:16;;;;;;;19.55;12.15;;;;;;;;;;5063307;28;20061;-59
2022/06/22 02:23:44;;;;;;;20.92;12.07;;;;;;;;;;5062656;28;20111;-59
2022/06/22 02:26:20;;;;;;;18.23;11.80;;;;;;;;;;5063688;28;20095;-59
2022/06/22 02:28:46;;;;;;;20.13;12.18;;;;;;;;;;5066173;28;20031;-59
2022/06/22 02:31:12;;;;;;;17.48;11.77;;;;;;;;;;5065570;28;20040;-59
2022/06/22 02:33:41;;;;;;;18.73;11.73;;;;;;;;;;5063955;28;20392;-59
2022/06/22 02:36:07;;;;;;;20.75;12.52;;;;;;;;;;5071392;28;20035;-59
2022/06/22 02:38:33;;;;;;;17.27;12.65;;;;;;;;;;5072329;28;20432;-59
2022/06/22 02:46:32;;;;;;;22.65;13.15;;;;;;;;;;5070867;28;20612;-59
2022/06/22 02:49:04;;;;;;;17.30;12.50;;;;;;;;;;5067992;28;20032;-58
2022/06/22 02:51:36;;;;;;;21.58;12.63;;;;;;;;;;5074109;28;20044;-59
2022/06/22 02:54:05;;;;;;;20.25;12.73;;;;;;;;;;5068378;28;20024;-59
2022/06/22 02:56:37;;;;;;;27.30;13.60;;;;;;;;;;5066455;28;20033;-58
2022/06/22 02:59:03;;;;;;;23.00;13.60;;;;;;;;;;5074194;28;20478;-60
2022/06/22 03:01:32;;;;;;;20.33;12.50;;;;;;;;;;5071047;28;20107;-59
2022/06/22 03:04:04;;;;;;;20.40;13.90;;;;;;;;;;5071789;28;20036;-59
2022/06/22 03:06:34;;;;;;;20.02;13.27;;;;;;;;;;5067642;28;20408;-58
2022/06/22 03:09:02;;;;;;;17.92;13.70;;;;;;;;;;5080439;28;20514;-58
2022/06/22 03:11:28;;;;;;;17.52;13.05;;;;;;;;;;5073026;28;20093;-59
2022/06/22 03:14:14;;;;;;;19.50;13.90;;;;;;;;;;5068708;28;20040;-57
2022/06/22 03:16:43;;;;;;;19.15;13.32;;;;;;;;;;5069780;28;20021;-58
2022/06/22 03:19:13;;;;;;;21.67;13.05;;;;;;;;;;5065878;28;20506;-59
2022/06/22 03:21:42;;;;;;;20.02;13.65;;;;;;;;;;5062087;28;20716;-58
2022/06/22 03:24:26;;;;;;;18.00;13.48;;;;;;;;;;5065550;28;20044;-58
2022/06/22 03:27:00;;;;;;;21.45;13.50;;;;;;;;;;5061394;28;20495;-59
2022/06/22 03:29:35;;;;;;;19.50;13.45;;;;;;;;;;5064751;28;20024;-58
2022/06/22 03:32:24;;;;;;;18.23;14.20;;;;;;;;;;5063728;28;20044;-58
2022/06/22 03:34:59;;;;;;;19.95;14.23;;;;;;;;;;5070852;28;20023;-59
2022/06/22 03:37:31;;;;;;;18.42;13.57;;;;;;;;;;5070541;28;20118;-59
2022/06/22 03:40:05;;;;;;;19.45;13.90;;;;;;;;;;5067041;28;20059;-58
2022/06/22 03:42:36;;;;;;;20.52;14.30;;;;;;;;;;5068628;28;20505;-58
2022/06/22 03:45:28;;;;;;;20.83;14.02;;;;;;;;;;5071239;28;20113;-59
2022/06/22 03:48:15;;;;;;;20.05;13.95;;;;;;;;;;5067611;28;20044;-59
2022/06/22 03:50:53;;;;;;;19.65;13.63;;;;;;;;;;5065386;28;20179;-58
2022/06/22 03:53:34;;;;;;;18.03;13.23;;;;;;;;;;5065367;28;20400;-58
2022/06/22 03:56:04;;;;;;;16.73;12.55;;;;;;;;;;5071285;28;20335;-59
2022/06/22 03:58:29;;;;;;;18.88;12.65;;;;;;;;;;5073950;28;20490;-59
2022/06/22 04:00:55;;;;;;;19.58;12.38;;;;;;;;;;5073797;28;20032;-57
2022/06/22 04:03:21;;;;;;;21.52;13.65;;;;;;;;;;5063741;28;20036;-57
2022/06/22 04:05:55;;;;;;;16.95;12.75;;;;;;;;;;5065168;28;20610;-58
2022/06/22 04:08:26;;;;;;;17.35;13.20;;;;;;;;;;5069877;28;20032;-58
2022/06/22 04:11:01;;;;;;;17.63;13.02;;;;;;;;;;5067533;28;20131;-58
2022/06/22 04:13:37;;;;;;;21.25;13.07;;;;;;;;;;5063417;28;20270;-57
2022/06/22 04:16:09;;;;;;;20.95;12.75;;;;;;;;;;5072730;28;20067;-58
2022/06/22 04:18:49;;;;;;;22.05;13.07;;;;;;;;;;5071541;28;20610;-58
2022/06/22 04:21:23;;;;;;;16.20;12.88;;;;;;;;;;5062022;28;20464;-60
2022/06/22 04:24:11;;;;;;;17.85;13.55;;;;;;;;;;5063196;28;20028;-60
2022/06/22 04:27:06;;;;;;;16.75;12.75;;;;;;;;;;5066301;28;20029;-60
2022/06/22 04:29:44;;;;;;;16.20;12.98;;;;;;;;;;5050027;28;20422;-59
2022/06/22 04:32:28;;;;;;;18.83;12.73;;;;;;;;;;5068194;28;20491;-59
2022/06/22 04:35:22;;;;;;;27.23;13.98;;;;;;;;;;5064921;28;20036;-59
2022/06/22 04:37:54;;;;;;;18.33;13.18;;;;;;;;;;5065320;28;20062;-59
2022/06/22 04:40:31;;;;;;;18.98;13.35;;;;;;;;;;5070623;28;20364;-59
2022/06/22 04:43:03;;;;;;;18.70;14.05;;;;;;;;;;5066617;28;20293;-59
2022/06/22 04:45:54;;;;;;;20.33;13.93;;;;;;;;;;5069082;28;20051;-59
2022/06/22 04:48:35;;;;;;;19.10;14.20;;;;;;;;;;5067878;28;20072;-60
2022/06/22 04:51:03;;;;;;;21.92;14.85;;;;;;;;;;5064903;28;20039;-59
2022/06/22 04:53:31;;;;;;;20.45;15.15;;;;;;;;;;5074033;28;20077;-59
2022/06/22 04:56:01;;;;;;;21.45;13.95;;;;;;;;;;5070708;28;20028;-58
2022/06/22 04:58:38;;;;;;;22.35;13.98;;;;;;;;;;5064826;28;20171;-59
2022/06/22 05:01:05;;;;;;;21.65;14.20;;;;;;;;;;5075954;28;20119;-59
2022/06/22 05:03:32;;;;;;;20.95;14.50;;;;;;;;;;5072931;28;20481;-59
2022/06/22 05:06:02;;;;;;;17.15;13.32;;;;;;;;;;5068575;28;20066;-59
2022/06/22 05:08:36;;;;;;;18.63;14.05;;;;;;;;;;5065039;28;20079;-60
2022/06/22 05:11:25;;;;;;;20.10;14.55;;;;;;;;;;5065361;28;20031;-58
2022/06/22 05:13:54;;;;;;;20.10;14.32;;;;;;;;;;5062528;28;20052;-59
2022/06/22 05:16:26;;;;;;;22.10;14.15;;;;;;;;;;5068943;28;20044;-59
2022/06/22 05:18:53;;;;;;;19.95;13.48;;;;;;;;;;5060281;28;20510;-58
2022/06/22 05:21:35;;;;;;;22.13;13.82;;;;;;;;;;5062126;28;20498;-59
2022/06/22 05:24:04;;;;;;;23.83;15.18;;;;;;;;;;5058150;28;20031;-58
2022/06/22 05:26:30;;;;;;;;;;;;;;;;;;5064017;28;20044;-59
2022/06/22 05:29:16;;;;;;;20.67;13.63;;;;;;;;;;5065764;28;19933;-58
2022/06/22 05:31:47;;;;;;;22.30;14.18;;;;;;;;;;5063812;28;20028;-54
2022/06/22 05:34:20;;;;;;;18.85;13.30;;;;;;;;;;5071104;28;20128;-59
2022/06/22 05:36:59;;;;;;;21.92;14.82;;;;;;;;;;5070595;28;20028;-58
2022/06/22 05:39:25;;;;;;;22.38;14.70;;;;;;;;;;5069375;28;20055;-58
2022/06/22 05:41:53;;;;;;;25.45;16.00;;;;;;;;;;5069536;28;20520;-59
2022/06/22 05:44:21;;;;;;;26.25;15.85;;;;;;;;;;5073052;28;20054;-59
2022/06/22 05:46:53;;;;;;;20.30;14.25;;;;;;;;;;5070803;28;20028;-58
2022/06/22 05:49:20;;;;;;;22.60;14.10;;;;;;;;;;5068778;28;20024;-61
2022/06/22 05:51:45;;;;;;;18.92;14.13;;;;;;;;;;5066538;28;20055;-60
2022/06/22 05:54:21;;;;;;;23.45;14.65;;;;;;;;;;5070555;28;20150;-59
2022/06/22 05:56:52;;;;;;;22.08;14.60;;;;;;;;;;5076906;28;20031;-59
2022/06/22 05:59:47;;;;;;;21.17;15.38;;;;;;;;;;5066502;28;20025;-58
2022/06/22 06:02:27;;;;;;;29.58;16.20;;;;;;;;;;5056814;28;20047;-58
2022/06/22 06:05:04;;;;;;;22.48;15.52;;;;;;;;;;5076109;28;20444;-59
2022/06/22 06:07:37;;;;;;;21.55;15.85;;;;;;;;;;5067672;28;20079;-58
2022/06/22 06:10:10;;;;;;;22.50;16.60;;;;;;;;;;5064282;28;20414;-58
2022/06/22 06:12:39;;;;;;;25.92;16.85;;;;;;;;;;5074857;28;20480;-59
2022/06/22 06:15:09;;;;;;;20.95;15.75;;;;;;;;;;5063949;28;20043;-59
2022/06/22 06:17:44;;;;;;;25.75;16.90;;;;;;;;;;5070071;28;20119;-59
2022/06/22 06:20:23;;;;;;;21.77;15.52;;;;;;;;;;5066447;28;20112;-59
2022/06/22 06:22:56;;;;;;;24.00;17.83;;;;;;;;;;5067775;28;20021;-61
2022/06/22 06:28:22;;;;;;;28.48;18.65;;;;;;;;;;5065693;28;20073;-61
2022/06/22 06:30:50;;;;;;;27.52;17.92;;;;;;;;;;5064893;28;20482;-61
2022/06/22 06:33:38;;;;;;;28.15;17.27;;;;;;;;;;5073155;28;20189;-60
2022/06/22 06:36:16;;;;;;;27.70;18.15;;;;;;;;;;5072193;28;20054;-60
2022/06/22 06:39:03;;;;;;;25.20;17.98;;;;;;;;;;5071023;28;20052;-59
2022/06/22 06:41:45;;;;;;;29.17;17.50;;;;;;;;;;5068558;28;20032;-60
2022/06/22 06:44:17;;;;;;;25.20;17.08;;;;;;;;;;5072541;28;20013;-59
2022/06/22 06:46:54;;;;;;;26.95;18.00;;;;;;;;;;5066917;28;20067;-60
2022/06/22 06:49:33;;;;;;;21.85;17.30;;;;;;;;;;5067370;28;20606;-60
2022/06/22 06:52:01;;;;;;;22.52;15.88;;;;;;;;;;5072532;28;20042;-60
2022/06/22 06:54:39;;;;;;;22.63;15.68;;;;;;;;;;5070108;28;20562;-59
2022/06/22 06:57:11;;;;;;;22.67;16.25;;;;;;;;;;5074568;28;20562;-60
2022/06/22 06:59:39;;;;;;;22.35;15.70;;;;;;;;;;5071954;28;20516;-59
2022/06/22 07:02:36;;;;;;;19.00;14.73;;;;;;;;;;5071850;28;20113;-60
2022/06/22 07:05:05;;;;;;;21.13;15.55;;;;;;;;;;5067970;28;20484;-59
2022/06/22 07:07:51;;;;;;;23.08;16.65;;;;;;;;;;5074537;28;20116;-59
2022/06/22 07:10:22;;;;;;;21.55;15.52;;;;;;;;;;5067626;28;20035;-60
2022/06/22 07:12:48;;;;;;;26.38;16.15;;;;;;;;;;5074158;28;20024;-59
2022/06/22 07:15:24;;;;;;;24.95;15.52;;;;;;;;;;5078400;28;20368;-59
2022/06/22 07:17:53;;;;;;;19.85;15.70;;;;;;;;;;5060846;28;20074;-60
2022/06/22 07:20:21;;;;;;;24.65;17.48;;;;;;;;;;5060766;28;20099;-59
2022/06/22 07:23:01;;;;;;;26.13;17.67;;;;;;;;;;5064036;28;20040;-59
2022/06/22 07:25:36;;;;;;;25.52;16.33;;;;;;;;;;5065059;28;20380;-60
2022/06/22 07:28:06;;;;;;;22.77;16.73;;;;;;;;;;5062051;28;20055;-58
2022/06/22 07:30:33;;;;;;;21.98;15.82;;;;;;;;;;5072220;28;20024;-58
2022/06/22 07:33:01;;;;;;;21.23;15.02;;;;;;;;;;5071487;28;20036;-58
2022/06/22 07:35:36;;;;;;;22.50;16.20;;;;;;;;;;5069788;28;20063;-60
2022/06/22 07:38:26;;;;;;;24.50;16.45;;;;;;;;;;5071313;28;20024;-58
2022/06/22 07:43:37;;;;;;;18.98;14.18;;;;;;;;;;5068757;28;20028;-59
2022/06/22 07:46:06;;;;;;;18.83;14.93;;;;;;;;;;5072464;28;20364;-59
2022/06/22 07:48:37;;;;;;;21.77;15.02;;;;;;;;;;5073884;28;20024;-58
2022/06/22 07:51:06;;;;;;;23.33;14.43;;;;;;;;;;5070624;28;20044;-59
2022/06/22 07:53:53;;;;;;;20.88;14.75;;;;;;;;;;5069055;28;20047;-59
2022/06/22 07:56:29;;;;;;;20.05;13.20;;;;;;;;;;5066819;28;20118;-58
2022/06/22 07:59:06;;;;;;;20.13;15.13;;;;;;;;;;5071627;28;20025;-58
2022/06/22 08:01:37;;;;;;;20.00;14.32;;;;;;;;;;5070445;28;20017;-58
2022/06/22 08:04:09;;;;;;;20.42;14.65;;;;;;;;;;5061704;28;20523;-59
2022/06/22 08:06:44;;;;;;;18.58;14.75;;;;;;;;;;5073001;28;20521;-57
2022/06/22 08:09:20;;;;;;;18.30;13.45;;;;;;;;;;5068163;28;20028;-59
2022/06/22 08:12:02;;;;;;;16.10;13.00;;;;;;;;;;5066023;28;20033;-59
2022/06/22 08:14:47;;;;;;;18.23;12.63;;;;;;;;;;5065529;28;20032;-58
2022/06/22 08:17:20;;;;;;;20.83;13.13;;;;;;;;;;5059728;28;20036;-59
2022/06/22 08:19:45;;;;;;;18.08;12.48;;;;;;;;;;5064534;28;20040;-59
2022/06/22 08:22:12;;;;;;;20.15;12.70;;;;;;;;;;5063154;28;20067;-58
2022/06/22 08:24:44;;;;;;;20.20;13.10;;;;;;;;;;5062776;28;20109;-59
2022/06/22 08:27:17;;;;;;;14.82;12.23;;;;;;;;;;5063609;28;20326;-58
2022/06/22 08:29:44;;;;;;;15.77;12.32;;;;;;;;;;5067593;28;20569;-59
2022/06/22 08:32:25;;;;;;;20.20;12.15;;;;;;;;;;5070234;28;20036;-57
2022/06/22 08:35:02;;;;;;;21.83;12.82;;;;;;;;;;5070478;28;20027;-59
2022/06/22 08:37:34;;;;;;;17.90;12.40;;;;;;;;;;5067988;28;20032;-58
2022/06/22 08:40:03;;;;;;;18.05;11.70;;;;;;;;;;5071105;28;20052;-59
2022/06/22 08:42:31;;;;;;;20.35;13.35;;;;;;;;;;5068092;28;20016;-58
2022/06/22 08:45:39;;;;;;;20.07;12.80;;;;;;;;;;5069285;28;20052;-58
2022/06/22 08:48:13;;;;;;;18.13;13.13;;;;;;;;;;5071047;28;20055;-60
2022/06/22 08:50:50;;;;;;;17.02;12.55;;;;;;;;;;5068607;28;20033;-62
2022/06/22 08:53:39;;;;;;;18.33;13.65;;;;;;;;;;5065268;28;20028;-60
2022/06/22 08:56:22;;;;;;;17.25;12.43;;;;;;;;;;5058848;28;20044;-59
2022/06/22 08:59:06;;;;;;;19.88;12.52;;;;;;;;;;5071301;28;20057;-58
2022/06/22 09:01:53;;;;;;;14.27;12.38;;;;;;;;;;5074959;28;20471;-59
2022/06/22 09:04:44;;;;;;;16.90;11.63;;;;;;;;;;5066791;28;20511;-60
2022/06/22 09:07:30;;;;;;;15.48;12.13;;;;;;;;;;5062472;28;20392;-59
2022/06/22 09:10:33;;;;;;;14.68;11.60;;;;;;;;;;5068952;28;20059;-59
2022/06/22 09:13:17;;;;;;;15.90;12.60;;;;;;;;;;5054457;28;20025;-58
2022/06/22 09:15:48;;;;;;;17.23;12.45;;;;;;;;;;5060962;28;20101;-58
2022/06/22 09:18:44;;;;;;;16.08;12.68;;;;;;;;;;5059053;28;20029;-58
2022/06/22 09:21:25;;;;;;;15.07;12.35;;;;;;;;;;5058559;28;20031;-59
2022/06/22 09:24:11;;;;;;;18.65;11.68;;;;;;;;;;5060293;28;20021;-59
2022/06/22 09:26:54;;;;;;;18.50;12.43;;;;;;;;;;5065607;28;20534;-59
2022/06/22 09:29:39;;;;;;;20.48;11.90;;;;;;;;;;5073552;28;20020;-59
2022/06/22 09:32:11;;;;;;;16.70;12.05;;;;;;;;;;5069108;28;20086;-60
2022/06/22 09:35:01;;;;;;;17.85;12.05;;;;;;;;;;5071550;28;20452;-59
2022/06/22 09:37:38;;;;;;;18.83;13.40;;;;;;;;;;5072458;28;20073;-58
2022/06/22 09:40:30;;;;;;;24.05;15.45;;;;;;;;;;5074323;28;20030;-58
2022/06/22 09:43:10;;;;;;;17.98;13.65;;;;;;;;;;5067958;28;20166;-59
2022/06/22 09:45:43;;;;;;;19.95;13.60;;;;;;;;;;5070887;28;20051;-58
2022/06/22 09:48:27;;;;;;;19.20;13.63;;;;;;;;;;5078438;28;20119;-58
2022/06/22 09:51:18;;;;;;;20.42;14.57;;;;;;;;;;5072916;28;20487;-57
2022/06/22 09:53:55;;;;;;;23.00;14.27;;;;;;;;;;5072516;28;20025;-58
2022/06/22 09:56:37;;;;;;;17.80;13.27;;;;;;;;;;5077585;28;20024;-58
2022/06/22 09:59:09;;;;;;;18.45;14.43;;;;;;;;;;5065335;28;20035;-57
2022/06/22 10:01:47;;;;;;;17.80;13.35;;;;;;;;;;5070481;28;20128;-58
2022/06/22 10:04:12;;;;;;;21.70;13.98;;;;;;;;;;5070766;28;20035;-58
2022/06/22 10:07:17;;;;;;;21.35;13.65;;;;;;;;;;5075609;28;20028;-59
2022/06/22 10:09:45;;;;;;;17.05;13.70;;;;;;;;;;5073050;28;20028;-58
2022/06/22 10:12:19;;;;;;;20.67;13.13;;;;;;;;;;5072480;28;20489;-59
2022/06/22 10:14:45;;;;;;;24.40;15.50;;;;;;;;;;5064505;28;20430;-59
2022/06/22 10:17:30;;;;;;;23.60;15.55;;;;;;;;;;5061423;28;20116;-58
2022/06/22 10:20:14;;;;;;;20.65;13.95;;;;;;;;;;5061824;28;20024;-58
2022/06/22 10:23:13;;;;;;;24.73;16.13;;;;;;;;;;5062903;28;20054;-59
2022/06/22 10:25:56;;;;;;;19.38;14.20;;;;;;;;;;5065558;28;20333;-60
2022/06/22 10:28:37;;;;;;;23.55;14.40;;;;;;;;;;5069354;28;20090;-59
2022/06/22 10:31:23;;;;;;;21.17;13.73;;;;;;;;;;5068715;28;20384;-59
2022/06/22 10:33:57;;;;;;;21.48;15.50;;;;;;;;;;5071722;28;20158;-58
2022/06/22 10:36:38;;;;;;;24.23;15.52;;;;;;;;;;5070527;28;20170;-58
2022/06/22 10:39:12;;;;;;;23.70;14.50;;;;;;;;;;5070920;28;20032;-57
2022/06/22 10:45:31;;;;;;;21.13;13.60;;;;;;;;;;5069255;28;20055;-58
2022/06/22 10:48:20;;;;;;;18.85;11.90;;;;;;;;;;5075423;28;20214;-57
2022/06/22 10:51:20;;;;;;;18.45;13.43;;;;;;;;;;5068906;28;20091;-59
2022/06/22 10:54:14;;;;;;;17.95;12.93;;;;;;;;;;5072953;28;20078;-58
2022/06/22 10:56:43;;;;;;;17.33;13.18;;;;;;;;;;5073463;28;20032;-58
2022/06/22 10:59:30;;;;;;;26.08;13.77;;;;;;;;;;5075986;28;20024;-58
2022/06/22 11:02:33;;;;;;;20.83;13.35;;;;;;;;;;5068495;28;20024;-59
2022/06/22 11:05:13;;;;;;;22.77;12.45;;;;;;;;;;5067162;28;20478;-59
2022/06/22 11:08:00;;;;;;;15.98;10.80;;;;;;;;;;5067230;28;20024;-61
2022/06/22 11:10:44;;;;;;;15.25;9.85;;;;;;;;;;5071402;28;20028;-59
2022/06/22 11:13:28;;;;;;;14.55;9.55;;;;;;;;;;5064030;28;20032;-61
2022/06/22 11:16:21;;;;;;;18.95;9.88;;;;;;;;;;5065511;28;20750;-60
2022/06/22 11:19:23;;;;;;;16.13;9.38;;;;;;;;;;5064808;28;20052;-61
2022/06/22 11:22:14;;;;;;;13.52;9.25;;;;;;;;;;5062633;28;20025;-63
2022/06/22 11:24:58;;;;;;;16.48;9.18;;;;;;;;;;5064259;28;20406;-61
2022/06/22 11:30:56;;;;;;;15.55;8.07;;;;;;;;;;5069195;28;20233;-62
2022/06/22 11:33:40;;;;;;;17.00;7.57;;;;;;;;;;5071370;28;20025;-59
2022/06/22 11:36:17;;;;;;;13.20;7.25;;;;;;;;;;5069633;28;20028;-59
2022/06/22 11:39:21;;;;;;;15.10;7.53;;;;;;;;;;5071185;28;20023;-61
2022/06/22 11:42:28;;;;;;;18.02;7.45;;;;;;;;;;5068889;28;20508;-60
2022/06/22 11:48:09;;;;;;;9.40;5.80;;;;;;;;;;5050704;28;20372;-60
2022/06/22 11:51:05;;;;;;;13.40;6.20;;;;;;;;;;5071426;28;20028;-59
2022/06/22 11:53:49;;;;;;;12.32;6.18;;;;;;;;;;5067991;28;20503;-60
2022/06/22 11:56:45;;;;;;;13.32;5.80;;;;;;;;;;5062400;28;20032;-61
2022/06/22 11:59:13;;;;;;;19.00;5.60;;;;;;;;;;5068876;28;20079;-61
2022/06/22 12:02:14;;;;;;;16.70;6.10;;;;;;;;;;5067883;28;20078;-61
2022/06/22 12:05:01;;;;;;;18.40;6.30;;;;;;;;;;5058876;28;20036;-61
2022/06/22 12:07:39;;;;;;;16.05;6.80;;;;;;;;;;5067392;28;20099;-60
2022/06/22 12:10:18;;;;;;;14.32;6.00;;;;;;;;;;5075453;28;20034;-60
2022/06/22 12:12:46;;;;;;;20.95;6.45;;;;;;;;;;5062631;28;20064;-59
2022/06/22 12:15:47;;;;;;;13.77;6.30;;;;;;;;;;5059817;28;20098;-61
2022/06/22 12:18:29;;;;;;;18.33;5.82;;;;;;;;;;5058662;28;20587;-61
2022/06/22 12:21:03;;;;;;;11.90;5.90;;;;;;;;;;5065472;28;20029;-60
2022/06/22 12:23:51;;;;;;;19.90;5.70;;;;;;;;;;5065406;28;20090;-60
2022/06/22 12:26:37;;;;;;;11.77;5.40;;;;;;;;;;5071172;28;20024;-59
2022/06/22 12:29:22;;;;;;;16.25;5.70;;;;;;;;;;5066616;28;20499;-60
2022/06/22 12:31:56;;;;;;;11.13;5.00;;;;;;;;;;5070008;28;20089;-61
2022/06/22 12:34:25;;;;;;;13.77;5.43;;;;;;;;;;5067332;28;20081;-60
2022/06/22 12:36:55;;;;;;;15.68;5.05;;;;;;;;;;5065904;28;20490;-60
2022/06/22 12:39:48;;;;;;;12.00;5.07;;;;;;;;;;5073735;28;20042;-57
2022/06/22 12:42:45;;;;;;;15.80;4.93;;;;;;;;;;5069127;28;20062;-61
2022/06/22 12:45:26;;;;;;;16.98;5.35;;;;;;;;;;5072683;28;20016;-60
2022/06/22 12:48:33;;;;;;;19.17;5.05;;;;;;;;;;5070084;28;20503;-61
2022/06/22 12:51:10;;;;;;;15.15;4.20;;;;;;;;;;5063677;28;20055;-61
2022/06/22 12:53:59;;;;;;;13.65;4.30;;;;;;;;;;5072572;28;20024;-60
2022/06/22 12:56:41;;;;;;;26.53;5.43;;;;;;;;;;5066364;28;20041;-61
2022/06/22 12:59:15;;;;;;;15.45;4.20;;;;;;;;;;5062456;28;20024;-61
2022/06/22 13:01:42;;;;;;;16.75;4.75;;;;;;;;;;5070829;28;20020;-60
2022/06/22 13:04:13;;;;;;;11.10;4.30;;;;;;;;;;5061407;28;20044;-61
2022/06/22 13:06:44;;;;;;;13.75;4.00;;;;;;;;;;5067651;28;20059;-60
2022/06/22 13:09:10;;;;;;;11.73;4.57;;;;;;;;;;5074637;28;20119;-60
2022/06/22 13:11:37;;;;;;;15.40;4.55;;;;;;;;;;5068687;28;20190;-60
2022/06/22 13:14:29;;;;;;;10.35;3.95;;;;;;;;;;5058748;28;20082;-60
2022/06/22 13:17:24;;;;;;;12.88;3.88;;;;;;;;;;5056293;28;20222;-60
2022/06/22 13:19:58;;;;;;;20.35;5.18;;;;;;;;;;5066053;28;20017;-60
2022/06/22 13:22:35;;;;;;;14.02;4.28;;;;;;;;;;5062688;28;20083;-60
2022/06/22 13:25:11;;;;;;;16.33;4.03;;;;;;;;;;5070000;28;20039;-60
2022/06/22 13:27:45;;;;;;;14.63;3.75;;;;;;;;;;5067549;28;20046;-58
2022/06/22 13:30:15;;;;;;;16.73;3.92;;;;;;;;;;5068836;28;20029;-60
2022/06/22 13:32:46;;;;;;;18.10;3.47;;;;;;;;;;5068979;28;20081;-61
2022/06/22 13:35:52;;;;;;;16.77;3.22;;;;;;;;;;5069324;28;20040;-59
2022/06/22 13:38:57;;;;;;;17.35;3.20;;;;;;;;;;5057132;28;20028;-58
2022/06/22 13:41:43;;;;;;;15.90;3.78;;;;;;;;;;5055497;28;20074;-59
2022/06/22 13:44:41;;;;;;;20.02;3.38;;;;;;;;;;5072939;28;20307;-59
2022/06/22 13:47:23;;;;;;;21.80;3.60;;;;;;;;;;5066883;28;20159;-59
2022/06/22 13:50:25;;;;;;;17.48;3.13;;;;;;;;;;5068488;28;20532;-59
2022/06/22 13:52:54;;;;;;;12.25;3.28;;;;;;;;;;5049470;28;20081;-59
2022/06/22 13:55:44;;;;;;;19.88;4.10;;;;;;;;;;5066236;28;20615;-60
2022/06/22 13:58:12;;;;;;;21.55;4.75;;;;;;;;;;5062448;28;20036;-60
2022/06/22 14:01:09;;;;;;;21.70;3.23;;;;;;;;;;5071187;28;20025;-59
2022/06/22 14:03:38;;;;;;;20.70;3.65;;;;;;;;;;5051516;28;20032;-58
2022/06/22 14:06:11;;;;;;;23.63;7.13;;;;;;;;;;5066535;28;20042;-58
2022/06/22 14:08:51;;;;;;;20.55;3.25;;;;;;;;;;5065642;28;20049;-58
2022/06/22 14:11:36;;;;;;;24.27;3.65;;;;;;;;;;5057552;28;20055;-61
2022/06/22 14:14:20;;;;;;;31.55;6.10;;;;;;;;;;5055828;28;20517;-59
2022/06/22 14:17:13;;;;;;;19.33;4.05;;;;;;;;;;5069223;28;20036;-59
2022/06/22 14:19:57;;;;;;;17.23;3.30;;;;;;;;;;5071719;28;20074;-59
2022/06/22 14:22:37;;;;;;;25.00;3.90;;;;;;;;;;5071741;28;20033;-59
2022/06/22 14:25:13;;;;;;;23.60;5.97;;;;;;;;;;5069723;28;20107;-60
2022/06/22 14:27:45;;;;;;;26.23;6.28;;;;;;;;;;5069263;28;20582;-59
2022/06/22 14:30:42;;;;;;;18.83;3.78;;;;;;;;;;5073000;28;20059;-60
2022/06/22 14:33:47;;;;;;;20.98;3.83;;;;;;;;;;5061185;28;20226;-59
2022/06/22 14:36:24;;;;;;;20.48;4.28;;;;;;;;;;5049440;28;20161;-60
2022/06/22 14:39:14;;;;;;;22.63;4.05;;;;;;;;;;5065282;28;20107;-59
2022/06/22 14:41:54;;;;;;;26.75;5.03;;;;;;;;;;5067451;28;20020;-59
2022/06/22 14:44:38;;;;;;;27.30;4.15;;;;;;;;;;5066505;28;20104;-60
2022/06/22 14:47:15;;;;;;;23.15;3.50;;;;;;;;;;5072404;28;20423;-59
2022/06/22 14:50:16;;;;;;;24.42;4.88;;;;;;;;;;5075465;28;20146;-59
2022/06/22 14:52:51;;;;;;;33.42;4.93;;;;;;;;;;5069713;28;20017;-60
2022/06/22 14:55:36;;;;;;;21.65;3.72;;;;;;;;;;5074847;28;20025;-60
2022/06/22 14:58:57;;;;;;;22.48;4.00;;;;;;;;;;5070606;28;20109;-60
2022/06/22 15:01:37;;;;;;;20.30;3.97;;;;;;;;;;5034211;28;20036;-59
2022/06/22 15:04:11;;;;;;;24.92;3.95;;;;;;;;;;5069826;28;20032;-59
2022/06/22 15:06:37;;;;;;;19.23;3.63;;;;;;;;;;5074321;28;20039;-59
2022/06/22 15:09:12;;;;;;;26.52;4.25;;;;;;;;;;5064816;28;20028;-58
2022/06/22 15:15:07;;;;;;;20.25;4.53;;;;;;;;;;5065326;28;20071;-58
2022/06/22 15:18:03;;;;;;;23.88;4.03;;;;;;;;;;5066030;28;20127;-59
2022/06/22 15:20:44;;;;;;;25.05;4.72;;;;;;;;;;5061327;28;20094;-58
2022/06/22 15:23:38;;;;;;;23.65;4.40;;;;;;;;;;5070675;28;20032;-59
2022/06/22 15:26:25;;;;;;;20.70;4.97;;;;;;;;;;5063692;28;20480;-61
2022/06/22 15:29:17;;;;;;;19.75;4.22;;;;;;;;;;5062962;28;20060;-59
2022/06/22 15:32:11;;;;;;;24.67;4.45;;;;;;;;;;5043589;28;20069;-60
2022/06/22 15:34:45;;;;;;;19.08;4.00;;;;;;;;;;5067290;28;20433;-58
2022/06/22 15:37:35;;;;;;;23.85;4.80;;;;;;;;;;5070184;28;20119;-59
2022/06/22 15:40:32;;;;;;;22.92;4.47;;;;;;;;;;5072179;28;20090;-59
2022/06/22 15:43:44;;;;;;;25.10;5.60;;;;;;;;;;5063688;28;20563;-60
2022/06/22 15:46:34;;;;;;;24.80;5.65;;;;;;;;;;5052896;28;20157;-59
2022/06/22 15:49:17;;;;;;;21.50;4.82;;;;;;;;;;5068750;28;20029;-60
2022/06/22 15:52:04;;;;;;;24.92;4.90;;;;;;;;;;5061538;28;20060;-60
2022/06/22 15:54:29;;;;;;;20.33;5.05;;;;;;;;;;5075932;28;20020;-60